Ugolny Airport
UHMA : now visible

Airfield :











YOU CAN JOIN US ON...

 
LOGIN :

Register | Disclaimer

   EN    FR    IT 

 









Legend :    VFR   Marginal VFR   IFR   Intensive IFR   Very Intensive IFR
Visi :
Ceiling :
>= 8 km
>= 3000ft
5 to 8 km
1000 to 3000 ft
1500m to 5 km
500 to 1000 ft
800 to 1500m
200 to 500 ft
< 800m
< 200 ft
Symbols :   Thunderstorms  Fog  Heavy snow  Heavy precipitations  Wind > 20 kt






- Airport Elevation : 194 ft
- IATA code : DYR


UHMA - Ugolny

CURRENT METAR :
  • 050330Z 18006MPS CAVOK 12/06 Q1015 R19/60D NOSIG RMK TDZ R19/18006G08MPS END R19/15005G07MPS QFE755/1007

EXPIRED METARs :
  • 050300Z 18006MPS CAVOK 12/05 Q1014 R19/CLRD60 NOSIG RMK TDZ R19/18006G07MPS END R19/16005G07MPS QFE755/1007
  • 050230Z 17004MPS 140V220 CAVOK 13/05 Q1014 R19/CLRD60 NOSIG RMK TDZ R19/17004G06MPS END R19/17005G07MPS QFE755/1007
  • 050200Z 19005MPS CAVOK 13/05 Q1014 R19/60D NOSIG RMK TDZ R19/19005G06MPS END R19/16004G06MPS QFE755/1007
  • 050130Z 18005MPS CAVOK 13/04 Q1014 R19/60D NOSIG RMK TDZ R19/18005G06MPS END R19/18004G06MPS QFE755/1007

TAF TAF UHMA
Valid from the 05 at 03:00 until the 06 at 03:00 UTC


050138Z 0503/0603 19003G08MPS 9999 SCT030
TEMPO 0503/0603 13006MPS 5000 -SHRA BR SCT005 BKN020CB
UHMA FIR / Asia



MET'MAP, your aeronautical weather chart ! - Copyright ORBIFLY December 2007 - Disclaimer

ORBIFLY MET'MAP TEAM :

Programming & Development : Alexandra Zaïnal
Concept & original design : Baudouin d'Aumeries
Assistance for programming : Marc-Olivier Méhu
Technical & hardware support : Manuel Goepfert

Contact : metmap@orbifly.com




SOURCES & CREDITS :

   NOAA       Earth
Advisory